sensor_id;sensor_type;location;lat;lon;timestamp;P1;durP1;ratioP1;P2;durP2;ratioP2
20954;SDS011;10636;19.390;-99.256;2023-06-22T00:00:11;7.63;;;6.15;;
20954;SDS011;10636;19.390;-99.256;2023-06-22T00:02:40;6.47;;;5.82;;
20954;SDS011;10636;19.390;-99.256;2023-06-22T00:05:09;7.32;;;6.05;;
20954;SDS011;10636;19.390;-99.256;2023-06-22T00:07:39;7.13;;;5.70;;
20954;SDS011;10636;19.390;-99.256;2023-06-22T00:10:07;7.53;;;5.85;;
20954;SDS011;10636;19.390;-99.256;2023-06-22T00:12:36;6.75;;;6.00;;
20954;SDS011;10636;19.390;-99.256;2023-06-22T00:15:05;6.50;;;5.90;;
20954;SDS011;10636;19.390;-99.256;2023-06-22T00:17:34;6.63;;;5.97;;
20954;SDS011;10636;19.390;-99.256;2023-06-22T00:20:02;7.43;;;6.22;;
20954;SDS011;10636;19.390;-99.256;2023-06-22T00:22:34;10.43;;;6.32;;
20954;SDS011;10636;19.390;-99.256;2023-06-22T00:25:07;7.07;;;6.07;;
20954;SDS011;10636;19.390;-99.256;2023-06-22T00:27:36;6.88;;;6.18;;
20954;SDS011;10636;19.390;-99.256;2023-06-22T00:30:05;8.43;;;6.20;;
20954;SDS011;10636;19.390;-99.256;2023-06-22T00:32:34;7.80;;;6.10;;
20954;SDS011;10636;19.390;-99.256;2023-06-22T00:35:03;7.40;;;6.10;;
20954;SDS011;10636;19.390;-99.256;2023-06-22T00:37:32;6.53;;;5.90;;
20954;SDS011;10636;19.390;-99.256;2023-06-22T00:40:01;8.05;;;5.75;;
20954;SDS011;10636;19.390;-99.256;2023-06-22T00:42:32;6.60;;;5.97;;
20954;SDS011;10636;19.390;-99.256;2023-06-22T00:45:00;6.97;;;6.30;;
20954;SDS011;10636;19.390;-99.256;2023-06-22T00:47:29;7.05;;;6.32;;
20954;SDS011;10636;19.390;-99.256;2023-06-22T00:49:57;6.85;;;6.22;;
20954;SDS011;10636;19.390;-99.256;2023-06-22T00:52:26;6.78;;;6.05;;
20954;SDS011;10636;19.390;-99.256;2023-06-22T00:54:56;10.45;;;6.85;;
20954;SDS011;10636;19.390;-99.256;2023-06-22T00:57:27;8.45;;;7.40;;
20954;SDS011;10636;19.390;-99.256;2023-06-22T00:59:57;9.18;;;7.60;;
20954;SDS011;10636;19.390;-99.256;2023-06-22T01:02:26;9.23;;;8.32;;
20954;SDS011;10636;19.390;-99.256;2023-06-22T01:04:55;11.25;;;8.55;;
20954;SDS011;10636;19.390;-99.256;2023-06-22T01:07:25;10.00;;;8.65;;
20954;SDS011;10636;19.390;-99.256;2023-06-22T01:10:00;10.23;;;8.88;;
20954;SDS011;10636;19.390;-99.256;2023-06-22T01:12:37;13.07;;;8.82;;
20954;SDS011;10636;19.390;-99.256;2023-06-22T01:15:20;9.02;;;8.10;;
20954;SDS011;10636;19.390;-99.256;2023-06-22T01:17:52;10.27;;;8.32;;
20954;SDS011;10636;19.390;-99.256;2023-06-22T01:20:23;13.10;;;8.65;;
20954;SDS011;10636;19.390;-99.256;2023-06-22T01:22:59;12.20;;;9.07;;
20954;SDS011;10636;19.390;-99.256;2023-06-22T01:25:37;14.32;;;8.98;;
20954;SDS011;10636;19.390;-99.256;2023-06-22T01:28:17;11.32;;;8.43;;
20954;SDS011;10636;19.390;-99.256;2023-06-22T01:30:55;10.35;;;8.45;;
20954;SDS011;10636;19.390;-99.256;2023-06-22T01:33:33;10.82;;;8.88;;
20954;SDS011;10636;19.390;-99.256;2023-06-22T01:36:04;12.45;;;8.32;;
20954;SDS011;10636;19.390;-99.256;2023-06-22T01:38:36;9.70;;;8.25;;
20954;SDS011;10636;19.390;-99.256;2023-06-22T01:41:06;13.45;;;8.10;;
20954;SDS011;10636;19.390;-99.256;2023-06-22T01:43:35;10.18;;;7.68;;
20954;SDS011;10636;19.390;-99.256;2023-06-22T01:46:06;14.52;;;7.97;;
20954;SDS011;10636;19.390;-99.256;2023-06-22T01:48:35;10.95;;;7.90;;
20954;SDS011;10636;19.390;-99.256;2023-06-22T01:51:05;8.45;;;7.75;;
20954;SDS011;10636;19.390;-99.256;2023-06-22T01:53:33;11.07;;;8.07;;
20954;SDS011;10636;19.390;-99.256;2023-06-22T01:56:02;8.88;;;7.70;;
20954;SDS011;10636;19.390;-99.256;2023-06-22T01:58:32;10.02;;;7.70;;
20954;SDS011;10636;19.390;-99.256;2023-06-22T02:01:07;9.75;;;8.05;;
20954;SDS011;10636;19.390;-99.256;2023-06-22T02:03:40;9.32;;;8.43;;
20954;SDS011;10636;19.390;-99.256;2023-06-22T02:06:13;8.60;;;7.60;;
20954;SDS011;10636;19.390;-99.256;2023-06-22T02:08:46;11.30;;;8.13;;
20954;SDS011;10636;19.390;-99.256;2023-06-22T02:11:17;10.38;;;7.55;;
20954;SDS011;10636;19.390;-99.256;2023-06-22T02:13:47;8.18;;;7.38;;
20954;SDS011;10636;19.390;-99.256;2023-06-22T02:16:21;8.05;;;7.22;;
20954;SDS011;10636;19.390;-99.256;2023-06-22T02:18:52;8.27;;;7.32;;
20954;SDS011;10636;19.390;-99.256;2023-06-22T02:21:23;8.90;;;7.18;;
20954;SDS011;10636;19.390;-99.256;2023-06-22T02:23:51;8.10;;;7.15;;
20954;SDS011;10636;19.390;-99.256;2023-06-22T02:26:20;7.22;;;6.53;;
20954;SDS011;10636;19.390;-99.256;2023-06-22T02:28:49;10.13;;;7.40;;
20954;SDS011;10636;19.390;-99.256;2023-06-22T02:31:17;7.70;;;7.00;;
20954;SDS011;10636;19.390;-99.256;2023-06-22T02:33:48;8.00;;;7.20;;
20954;SDS011;10636;19.390;-99.256;2023-06-22T02:36:17;7.90;;;6.95;;
20954;SDS011;10636;19.390;-99.256;2023-06-22T02:38:48;7.90;;;6.65;;
20954;SDS011;10636;19.390;-99.256;2023-06-22T02:41:16;7.70;;;6.90;;
20954;SDS011;10636;19.390;-99.256;2023-06-22T02:43:45;8.10;;;6.65;;
20954;SDS011;10636;19.390;-99.256;2023-06-22T02:46:13;7.40;;;6.68;;
20954;SDS011;10636;19.390;-99.256;2023-06-22T02:48:42;7.32;;;6.63;;
20954;SDS011;10636;19.390;-99.256;2023-06-22T02:51:12;7.20;;;6.50;;
20954;SDS011;10636;19.390;-99.256;2023-06-22T02:53:41;8.45;;;6.78;;
20954;SDS011;10636;19.390;-99.256;2023-06-22T02:56:11;7.68;;;6.90;;
20954;SDS011;10636;19.390;-99.256;2023-06-22T02:58:40;7.75;;;6.95;;
20954;SDS011;10636;19.390;-99.256;2023-06-22T03:01:08;7.90;;;7.00;;
20954;SDS011;10636;19.390;-99.256;2023-06-22T03:03:38;7.38;;;6.68;;
20954;SDS011;10636;19.390;-99.256;2023-06-22T03:06:07;7.90;;;7.10;;
20954;SDS011;10636;19.390;-99.256;2023-06-22T03:08:41;7.40;;;6.68;;
20954;SDS011;10636;19.390;-99.256;2023-06-22T03:11:09;7.65;;;6.95;;
20954;SDS011;10636;19.390;-99.256;2023-06-22T03:13:38;7.65;;;6.93;;
20954;SDS011;10636;19.390;-99.256;2023-06-22T03:16:06;7.38;;;6.65;;
20954;SDS011;10636;19.390;-99.256;2023-06-22T03:18:35;9.68;;;6.82;;
20954;SDS011;10636;19.390;-99.256;2023-06-22T03:21:03;7.47;;;6.78;;
20954;SDS011;10636;19.390;-99.256;2023-06-22T03:23:32;7.68;;;6.97;;
20954;SDS011;10636;19.390;-99.256;2023-06-22T03:26:02;7.80;;;7.10;;
20954;SDS011;10636;19.390;-99.256;2023-06-22T03:28:31;7.53;;;6.70;;
20954;SDS011;10636;19.390;-99.256;2023-06-22T03:31:00;7.85;;;7.10;;
20954;SDS011;10636;19.390;-99.256;2023-06-22T03:33:29;7.78;;;6.97;;
20954;SDS011;10636;19.390;-99.256;2023-06-22T03:35:57;7.63;;;6.93;;
20954;SDS011;10636;19.390;-99.256;2023-06-22T03:38:26;7.72;;;7.03;;
20954;SDS011;10636;19.390;-99.256;2023-06-22T03:40:54;7.93;;;7.15;;
20954;SDS011;10636;19.390;-99.256;2023-06-22T03:43:24;7.50;;;6.90;;
20954;SDS011;10636;19.390;-99.256;2023-06-22T03:45:53;7.38;;;6.78;;
20954;SDS011;10636;19.390;-99.256;2023-06-22T03:48:22;7.53;;;6.93;;
20954;SDS011;10636;19.390;-99.256;2023-06-22T03:50:53;7.88;;;7.20;;
20954;SDS011;10636;19.390;-99.256;2023-06-22T03:53:21;8.05;;;7.35;;
20954;SDS011;10636;19.390;-99.256;2023-06-22T03:55:50;7.35;;;6.65;;
20954;SDS011;10636;19.390;-99.256;2023-06-22T03:58:19;6.95;;;6.45;;
20954;SDS011;10636;19.390;-99.256;2023-06-22T04:00:50;8.70;;;6.88;;
20954;SDS011;10636;19.390;-99.256;2023-06-22T04:03:20;7.50;;;6.80;;
20954;SDS011;10636;19.390;-99.256;2023-06-22T04:05:48;7.93;;;7.07;;
20954;SDS011;10636;19.390;-99.256;2023-06-22T04:08:17;7.80;;;7.10;;
20954;SDS011;10636;19.390;-99.256;2023-06-22T04:10:46;7.93;;;7.22;;
20954;SDS011;10636;19.390;-99.256;2023-06-22T04:13:14;7.88;;;7.07;;
20954;SDS011;10636;19.390;-99.256;2023-06-22T04:15:43;7.22;;;6.53;;
20954;SDS011;10636;19.390;-99.256;2023-06-22T04:18:13;7.75;;;7.03;;
20954;SDS011;10636;19.390;-99.256;2023-06-22T04:20:42;7.45;;;6.75;;
20954;SDS011;10636;19.390;-99.256;2023-06-22T04:23:10;7.43;;;6.72;;
20954;SDS011;10636;19.390;-99.256;2023-06-22T04:25:39;7.50;;;6.78;;
20954;SDS011;10636;19.390;-99.256;2023-06-22T04:28:07;9.23;;;6.80;;
20954;SDS011;10636;19.390;-99.256;2023-06-22T04:30:38;7.88;;;7.18;;
20954;SDS011;10636;19.390;-99.256;2023-06-22T04:33:13;8.35;;;7.13;;
20954;SDS011;10636;19.390;-99.256;2023-06-22T04:35:44;7.70;;;6.90;;
20954;SDS011;10636;19.390;-99.256;2023-06-22T04:38:13;10.32;;;7.57;;
20954;SDS011;10636;19.390;-99.256;2023-06-22T04:40:41;8.05;;;7.25;;
20954;SDS011;10636;19.390;-99.256;2023-06-22T04:43:10;8.43;;;7.60;;
20954;SDS011;10636;19.390;-99.256;2023-06-22T04:45:39;8.38;;;7.47;;
20954;SDS011;10636;19.390;-99.256;2023-06-22T04:48:07;8.15;;;7.35;;
20954;SDS011;10636;19.390;-99.256;2023-06-22T04:50:40;8.30;;;7.38;;
20954;SDS011;10636;19.390;-99.256;2023-06-22T04:53:10;8.57;;;7.68;;
20954;SDS011;10636;19.390;-99.256;2023-06-22T04:55:38;9.00;;;7.63;;
20954;SDS011;10636;19.390;-99.256;2023-06-22T04:58:12;8.98;;;8.07;;
20954;SDS011;10636;19.390;-99.256;2023-06-22T05:00:40;8.73;;;7.88;;
20954;SDS011;10636;19.390;-99.256;2023-06-22T05:03:10;9.50;;;8.10;;
20954;SDS011;10636;19.390;-99.256;2023-06-22T05:05:40;8.73;;;7.85;;
20954;SDS011;10636;19.390;-99.256;2023-06-22T05:08:09;9.20;;;8.27;;
20954;SDS011;10636;19.390;-99.256;2023-06-22T05:10:37;8.90;;;8.02;;
20954;SDS011;10636;19.390;-99.256;2023-06-22T05:13:06;10.07;;;8.45;;
20954;SDS011;10636;19.390;-99.256;2023-06-22T05:15:34;9.43;;;8.35;;
20954;SDS011;10636;19.390;-99.256;2023-06-22T05:18:05;8.48;;;7.68;;
20954;SDS011;10636;19.390;-99.256;2023-06-22T05:20:34;9.35;;;8.40;;
20954;SDS011;10636;19.390;-99.256;2023-06-22T05:23:04;9.48;;;8.52;;
20954;SDS011;10636;19.390;-99.256;2023-06-22T05:25:32;9.60;;;8.70;;
20954;SDS011;10636;19.390;-99.256;2023-06-22T05:28:01;9.35;;;8.45;;
20954;SDS011;10636;19.390;-99.256;2023-06-22T05:30:31;10.10;;;8.75;;
20954;SDS011;10636;19.390;-99.256;2023-06-22T05:32:59;10.27;;;9.27;;
20954;SDS011;10636;19.390;-99.256;2023-06-22T05:35:31;11.32;;;9.23;;
20954;SDS011;10636;19.390;-99.256;2023-06-22T05:37:59;10.77;;;9.00;;
20954;SDS011;10636;19.390;-99.256;2023-06-22T05:40:29;10.27;;;9.38;;
20954;SDS011;10636;19.390;-99.256;2023-06-22T05:42:58;11.18;;;9.43;;
20954;SDS011;10636;19.390;-99.256;2023-06-22T05:45:27;10.82;;;9.23;;
20954;SDS011;10636;19.390;-99.256;2023-06-22T05:47:56;10.05;;;9.02;;
20954;SDS011;10636;19.390;-99.256;2023-06-22T05:50:24;10.15;;;9.10;;
20954;SDS011;10636;19.390;-99.256;2023-06-22T05:52:53;12.63;;;9.02;;
20954;SDS011;10636;19.390;-99.256;2023-06-22T05:55:21;11.27;;;9.40;;
20954;SDS011;10636;19.390;-99.256;2023-06-22T05:57:51;10.48;;;9.45;;
20954;SDS011;10636;19.390;-99.256;2023-06-22T06:00:20;10.43;;;9.40;;
20954;SDS011;10636;19.390;-99.256;2023-06-22T06:02:49;10.18;;;9.23;;
20954;SDS011;10636;19.390;-99.256;2023-06-22T06:05:18;12.35;;;9.20;;
20954;SDS011;10636;19.390;-99.256;2023-06-22T06:07:46;9.50;;;8.63;;
20954;SDS011;10636;19.390;-99.256;2023-06-22T06:10:15;10.48;;;9.38;;
20954;SDS011;10636;19.390;-99.256;2023-06-22T06:12:43;10.50;;;9.45;;
20954;SDS011;10636;19.390;-99.256;2023-06-22T06:15:14;10.70;;;9.60;;
20954;SDS011;10636;19.390;-99.256;2023-06-22T06:17:46;10.45;;;9.35;;
20954;SDS011;10636;19.390;-99.256;2023-06-22T06:20:15;11.27;;;9.68;;
20954;SDS011;10636;19.390;-99.256;2023-06-22T06:22:43;11.80;;;9.10;;
20954;SDS011;10636;19.390;-99.256;2023-06-22T06:25:12;9.98;;;9.02;;
20954;SDS011;10636;19.390;-99.256;2023-06-22T06:27:44;10.50;;;9.43;;
20954;SDS011;10636;19.390;-99.256;2023-06-22T06:30:14;9.88;;;8.85;;
20954;SDS011;10636;19.390;-99.256;2023-06-22T06:32:44;9.63;;;8.70;;
20954;SDS011;10636;19.390;-99.256;2023-06-22T06:35:14;10.32;;;8.82;;
20954;SDS011;10636;19.390;-99.256;2023-06-22T06:37:44;9.82;;;8.60;;
20954;SDS011;10636;19.390;-99.256;2023-06-22T06:40:15;9.60;;;8.70;;
20954;SDS011;10636;19.390;-99.256;2023-06-22T06:42:45;9.93;;;9.02;;
20954;SDS011;10636;19.390;-99.256;2023-06-22T06:45:17;10.25;;;8.65;;
20954;SDS011;10636;19.390;-99.256;2023-06-22T06:47:48;9.82;;;8.73;;
20954;SDS011;10636;19.390;-99.256;2023-06-22T06:50:17;9.23;;;8.45;;
20954;SDS011;10636;19.390;-99.256;2023-06-22T06:52:46;9.25;;;8.45;;
20954;SDS011;10636;19.390;-99.256;2023-06-22T06:55:15;10.02;;;9.00;;
20954;SDS011;10636;19.390;-99.256;2023-06-22T06:57:45;9.35;;;8.20;;
20954;SDS011;10636;19.390;-99.256;2023-06-22T07:00:17;9.52;;;8.60;;
20954;SDS011;10636;19.390;-99.256;2023-06-22T07:02:46;9.45;;;8.60;;
20954;SDS011;10636;19.390;-99.256;2023-06-22T07:05:15;9.38;;;8.32;;
20954;SDS011;10636;19.390;-99.256;2023-06-22T07:07:44;9.80;;;8.40;;
20954;SDS011;10636;19.390;-99.256;2023-06-22T07:10:13;9.55;;;8.57;;
20954;SDS011;10636;19.390;-99.256;2023-06-22T07:12:42;8.90;;;8.10;;
20954;SDS011;10636;19.390;-99.256;2023-06-22T07:15:11;9.05;;;8.25;;
20954;SDS011;10636;19.390;-99.256;2023-06-22T07:17:41;10.23;;;8.35;;
20954;SDS011;10636;19.390;-99.256;2023-06-22T07:20:10;10.98;;;8.50;;
20954;SDS011;10636;19.390;-99.256;2023-06-22T07:22:40;9.23;;;8.10;;
20954;SDS011;10636;19.390;-99.256;2023-06-22T07:25:10;8.82;;;8.13;;
20954;SDS011;10636;19.390;-99.256;2023-06-22T07:27:43;9.00;;;8.10;;
20954;SDS011;10636;19.390;-99.256;2023-06-22T07:30:13;8.68;;;7.85;;
20954;SDS011;10636;19.390;-99.256;2023-06-22T07:32:43;9.45;;;8.35;;
20954;SDS011;10636;19.390;-99.256;2023-06-22T07:35:12;9.60;;;8.20;;
20954;SDS011;10636;19.390;-99.256;2023-06-22T07:37:42;8.65;;;7.75;;
20954;SDS011;10636;19.390;-99.256;2023-06-22T07:40:10;9.48;;;8.60;;
20954;SDS011;10636;19.390;-99.256;2023-06-22T07:42:39;9.02;;;8.10;;
20954;SDS011;10636;19.390;-99.256;2023-06-22T07:45:08;10.13;;;8.48;;
20954;SDS011;10636;19.390;-99.256;2023-06-22T07:47:37;9.30;;;8.50;;
20954;SDS011;10636;19.390;-99.256;2023-06-22T07:50:07;9.25;;;8.30;;
20954;SDS011;10636;19.390;-99.256;2023-06-22T07:52:36;8.88;;;8.07;;
20954;SDS011;10636;19.390;-99.256;2023-06-22T07:55:05;8.50;;;7.57;;
20954;SDS011;10636;19.390;-99.256;2023-06-22T07:57:34;9.07;;;8.18;;
20954;SDS011;10636;19.390;-99.256;2023-06-22T08:00:03;8.45;;;7.75;;
20954;SDS011;10636;19.390;-99.256;2023-06-22T08:02:38;8.73;;;7.85;;
20954;SDS011;10636;19.390;-99.256;2023-06-22T08:05:09;9.02;;;7.65;;
20954;SDS011;10636;19.390;-99.256;2023-06-22T08:07:38;8.68;;;7.78;;
20954;SDS011;10636;19.390;-99.256;2023-06-22T08:10:09;8.45;;;7.60;;
20954;SDS011;10636;19.390;-99.256;2023-06-22T08:12:38;8.95;;;8.05;;
20954;SDS011;10636;19.390;-99.256;2023-06-22T08:15:07;8.57;;;7.45;;
20954;SDS011;10636;19.390;-99.256;2023-06-22T08:17:36;9.35;;;8.32;;
20954;SDS011;10636;19.390;-99.256;2023-06-22T08:20:05;8.27;;;7.57;;
20954;SDS011;10636;19.390;-99.256;2023-06-22T08:22:39;8.43;;;7.63;;
20954;SDS011;10636;19.390;-99.256;2023-06-22T08:25:08;8.73;;;7.82;;
20954;SDS011;10636;19.390;-99.256;2023-06-22T08:27:38;9.30;;;8.40;;
20954;SDS011;10636;19.390;-99.256;2023-06-22T08:30:07;8.70;;;7.90;;
20954;SDS011;10636;19.390;-99.256;2023-06-22T08:32:38;8.73;;;7.88;;
20954;SDS011;10636;19.390;-99.256;2023-06-22T08:35:06;9.45;;;8.18;;
20954;SDS011;10636;19.390;-99.256;2023-06-22T08:37:35;8.55;;;7.75;;
20954;SDS011;10636;19.390;-99.256;2023-06-22T08:40:07;8.40;;;7.63;;
20954;SDS011;10636;19.390;-99.256;2023-06-22T08:42:36;9.48;;;8.63;;
20954;SDS011;10636;19.390;-99.256;2023-06-22T08:45:05;8.60;;;7.85;;
20954;SDS011;10636;19.390;-99.256;2023-06-22T08:47:34;8.75;;;7.90;;
20954;SDS011;10636;19.390;-99.256;2023-06-22T08:50:03;10.00;;;7.90;;
20954;SDS011;10636;19.390;-99.256;2023-06-22T08:52:33;8.32;;;7.53;;
20954;SDS011;10636;19.390;-99.256;2023-06-22T08:55:02;8.40;;;7.60;;
20954;SDS011;10636;19.390;-99.256;2023-06-22T08:57:32;8.43;;;7.63;;
20954;SDS011;10636;19.390;-99.256;2023-06-22T09:00:03;8.63;;;7.78;;
20954;SDS011;10636;19.390;-99.256;2023-06-22T09:02:33;8.75;;;7.47;;
20954;SDS011;10636;19.390;-99.256;2023-06-22T09:05:03;8.25;;;7.55;;
20954;SDS011;10636;19.390;-99.256;2023-06-22T09:07:32;8.80;;;7.78;;
20954;SDS011;10636;19.390;-99.256;2023-06-22T09:10:00;8.52;;;7.82;;
20954;SDS011;10636;19.390;-99.256;2023-06-22T09:12:32;7.90;;;7.20;;
20954;SDS011;10636;19.390;-99.256;2023-06-22T09:15:03;8.48;;;7.75;;
20954;SDS011;10636;19.390;-99.256;2023-06-22T09:17:33;8.18;;;7.38;;
20954;SDS011;10636;19.390;-99.256;2023-06-22T09:20:02;8.30;;;7.60;;
20954;SDS011;10636;19.390;-99.256;2023-06-22T09:22:32;8.02;;;7.40;;
20954;SDS011;10636;19.390;-99.256;2023-06-22T09:25:01;7.78;;;7.18;;
20954;SDS011;10636;19.390;-99.256;2023-06-22T09:27:32;8.55;;;7.75;;
20954;SDS011;10636;19.390;-99.256;2023-06-22T09:30:00;8.23;;;7.50;;
20954;SDS011;10636;19.390;-99.256;2023-06-22T09:32:29;8.60;;;7.90;;
20954;SDS011;10636;19.390;-99.256;2023-06-22T09:34:57;8.32;;;7.63;;
20954;SDS011;10636;19.390;-99.256;2023-06-22T09:37:26;8.93;;;7.55;;
20954;SDS011;10636;19.390;-99.256;2023-06-22T09:39:54;8.40;;;7.65;;
20954;SDS011;10636;19.390;-99.256;2023-06-22T09:42:23;8.15;;;7.35;;
20954;SDS011;10636;19.390;-99.256;2023-06-22T09:44:53;8.32;;;7.50;;
20954;SDS011;10636;19.390;-99.256;2023-06-22T09:47:22;8.07;;;7.32;;
20954;SDS011;10636;19.390;-99.256;2023-06-22T09:49:50;8.60;;;7.90;;
20954;SDS011;10636;19.390;-99.256;2023-06-22T09:52:21;8.30;;;7.70;;
20954;SDS011;10636;19.390;-99.256;2023-06-22T09:54:49;8.20;;;7.40;;
20954;SDS011;10636;19.390;-99.256;2023-06-22T09:57:18;9.25;;;7.47;;
20954;SDS011;10636;19.390;-99.256;2023-06-22T09:59:46;8.38;;;7.57;;
20954;SDS011;10636;19.390;-99.256;2023-06-22T10:02:16;8.45;;;7.70;;
20954;SDS011;10636;19.390;-99.256;2023-06-22T10:04:45;8.55;;;7.80;;
20954;SDS011;10636;19.390;-99.256;2023-06-22T10:07:13;8.38;;;7.68;;
20954;SDS011;10636;19.390;-99.256;2023-06-22T10:09:42;8.63;;;7.80;;
20954;SDS011;10636;19.390;-99.256;2023-06-22T10:12:10;9.00;;;8.20;;
20954;SDS011;10636;19.390;-99.256;2023-06-22T10:14:39;8.75;;;7.85;;
20954;SDS011;10636;19.390;-99.256;2023-06-22T10:17:07;8.98;;;8.07;;
20954;SDS011;10636;19.390;-99.256;2023-06-22T10:19:38;8.20;;;7.47;;
20954;SDS011;10636;19.390;-99.256;2023-06-22T10:22:07;9.40;;;8.50;;
20954;SDS011;10636;19.390;-99.256;2023-06-22T10:24:35;8.45;;;7.65;;
20954;SDS011;10636;19.390;-99.256;2023-06-22T10:27:10;8.70;;;7.90;;
20954;SDS011;10636;19.390;-99.256;2023-06-22T10:29:39;8.80;;;7.90;;
20954;SDS011;10636;19.390;-99.256;2023-06-22T10:32:08;9.23;;;8.43;;
20954;SDS011;10636;19.390;-99.256;2023-06-22T10:34:38;8.90;;;8.10;;
20954;SDS011;10636;19.390;-99.256;2023-06-22T10:37:06;9.15;;;8.30;;
20954;SDS011;10636;19.390;-99.256;2023-06-22T10:39:37;9.43;;;8.35;;
20954;SDS011;10636;19.390;-99.256;2023-06-22T10:42:06;9.77;;;8.82;;
20954;SDS011;10636;19.390;-99.256;2023-06-22T10:44:34;8.90;;;8.00;;
20954;SDS011;10636;19.390;-99.256;2023-06-22T10:47:04;8.93;;;8.10;;
20954;SDS011;10636;19.390;-99.256;2023-06-22T10:49:33;9.27;;;8.35;;
20954;SDS011;10636;19.390;-99.256;2023-06-22T10:52:04;8.85;;;7.90;;
20954;SDS011;10636;19.390;-99.256;2023-06-22T10:54:33;10.32;;;8.25;;
20954;SDS011;10636;19.390;-99.256;2023-06-22T10:57:02;9.60;;;8.80;;
20954;SDS011;10636;19.390;-99.256;2023-06-22T10:59:31;9.40;;;8.40;;
20954;SDS011;10636;19.390;-99.256;2023-06-22T11:02:00;9.50;;;8.70;;
20954;SDS011;10636;19.390;-99.256;2023-06-22T11:04:28;9.52;;;8.70;;
20954;SDS011;10636;19.390;-99.256;2023-06-22T11:06:57;9.70;;;8.63;;
20954;SDS011;10636;19.390;-99.256;2023-06-22T11:09:27;9.95;;;8.65;;
20954;SDS011;10636;19.390;-99.256;2023-06-22T11:11:56;10.48;;;8.90;;
20954;SDS011;10636;19.390;-99.256;2023-06-22T11:14:25;9.55;;;8.65;;
20954;SDS011;10636;19.390;-99.256;2023-06-22T11:16:53;10.43;;;8.95;;
20954;SDS011;10636;19.390;-99.256;2023-06-22T11:19:22;10.95;;;9.05;;
20954;SDS011;10636;19.390;-99.256;2023-06-22T11:21:51;9.77;;;8.30;;
20954;SDS011;10636;19.390;-99.256;2023-06-22T11:24:19;10.10;;;8.65;;
20954;SDS011;10636;19.390;-99.256;2023-06-22T11:26:49;9.60;;;8.55;;
20954;SDS011;10636;19.390;-99.256;2023-06-22T11:29:18;11.35;;;8.80;;
20954;SDS011;10636;19.390;-99.256;2023-06-22T11:31:46;10.02;;;9.02;;
20954;SDS011;10636;19.390;-99.256;2023-06-22T11:34:15;8.98;;;8.18;;
20954;SDS011;10636;19.390;-99.256;2023-06-22T11:36:44;9.75;;;8.75;;
20954;SDS011;10636;19.390;-99.256;2023-06-22T11:39:13;8.93;;;8.20;;
20954;SDS011;10636;19.390;-99.256;2023-06-22T11:41:42;9.75;;;8.75;;
20954;SDS011;10636;19.390;-99.256;2023-06-22T11:44:12;10.73;;;8.65;;
20954;SDS011;10636;19.390;-99.256;2023-06-22T11:46:42;10.07;;;8.98;;
20954;SDS011;10636;19.390;-99.256;2023-06-22T11:49:10;10.63;;;8.57;;
20954;SDS011;10636;19.390;-99.256;2023-06-22T11:51:39;10.55;;;8.40;;
20954;SDS011;10636;19.390;-99.256;2023-06-22T11:54:10;10.45;;;8.38;;
20954;SDS011;10636;19.390;-99.256;2023-06-22T11:56:41;10.02;;;8.82;;
20954;SDS011;10636;19.390;-99.256;2023-06-22T11:59:10;9.60;;;8.68;;
20954;SDS011;10636;19.390;-99.256;2023-06-22T12:01:40;9.32;;;8.52;;
20954;SDS011;10636;19.390;-99.256;2023-06-22T12:04:08;9.55;;;8.65;;
20954;SDS011;10636;19.390;-99.256;2023-06-22T12:06:37;10.27;;;8.57;;
20954;SDS011;10636;19.390;-99.256;2023-06-22T12:09:08;9.82;;;8.90;;
20954;SDS011;10636;19.390;-99.256;2023-06-22T12:11:39;9.07;;;8.18;;
20954;SDS011;10636;19.390;-99.256;2023-06-22T12:14:07;10.88;;;8.52;;
20954;SDS011;10636;19.390;-99.256;2023-06-22T12:16:38;9.65;;;8.68;;
20954;SDS011;10636;19.390;-99.256;2023-06-22T12:19:06;9.57;;;8.43;;
20954;SDS011;10636;19.390;-99.256;2023-06-22T12:21:36;9.60;;;8.40;;
20954;SDS011;10636;19.390;-99.256;2023-06-22T12:24:06;10.32;;;8.73;;
20954;SDS011;10636;19.390;-99.256;2023-06-22T12:26:34;9.20;;;8.25;;
20954;SDS011;10636;19.390;-99.256;2023-06-22T12:29:03;9.05;;;8.15;;
20954;SDS011;10636;19.390;-99.256;2023-06-22T12:31:32;11.02;;;9.05;;
20954;SDS011;10636;19.390;-99.256;2023-06-22T12:34:06;10.13;;;8.18;;
20954;SDS011;10636;19.390;-99.256;2023-06-22T12:36:34;9.40;;;8.45;;
20954;SDS011;10636;19.390;-99.256;2023-06-22T12:39:03;9.25;;;8.35;;
20954;SDS011;10636;19.390;-99.256;2023-06-22T12:41:31;9.80;;;8.90;;
20954;SDS011;10636;19.390;-99.256;2023-06-22T12:44:00;9.70;;;8.80;;
20954;SDS011;10636;19.390;-99.256;2023-06-22T12:46:29;9.88;;;8.95;;
20954;SDS011;10636;19.390;-99.256;2023-06-22T12:49:03;9.45;;;8.35;;
20954;SDS011;10636;19.390;-99.256;2023-06-22T12:51:33;10.00;;;9.02;;
20954;SDS011;10636;19.390;-99.256;2023-06-22T12:54:06;9.40;;;8.30;;
20954;SDS011;10636;19.390;-99.256;2023-06-22T12:56:35;9.93;;;8.40;;
20954;SDS011;10636;19.390;-99.256;2023-06-22T12:59:04;9.95;;;9.05;;
20954;SDS011;10636;19.390;-99.256;2023-06-22T13:01:33;11.50;;;9.02;;
20954;SDS011;10636;19.390;-99.256;2023-06-22T13:04:02;9.98;;;8.80;;
20954;SDS011;10636;19.390;-99.256;2023-06-22T13:06:33;10.07;;;8.70;;
20954;SDS011;10636;19.390;-99.256;2023-06-22T13:09:01;9.63;;;8.70;;
20954;SDS011;10636;19.390;-99.256;2023-06-22T13:11:31;9.40;;;8.50;;
20954;SDS011;10636;19.390;-99.256;2023-06-22T13:13:59;9.50;;;8.57;;
20954;SDS011;10636;19.390;-99.256;2023-06-22T13:16:30;10.07;;;9.15;;
20954;SDS011;10636;19.390;-99.256;2023-06-22T13:18:59;9.60;;;8.60;;
20954;SDS011;10636;19.390;-99.256;2023-06-22T13:21:27;11.13;;;9.10;;
20954;SDS011;10636;19.390;-99.256;2023-06-22T13:23:57;11.55;;;9.18;;
20954;SDS011;10636;19.390;-99.256;2023-06-22T13:26:26;10.55;;;8.90;;
20954;SDS011;10636;19.390;-99.256;2023-06-22T13:28:55;9.98;;;8.98;;
20954;SDS011;10636;19.390;-99.256;2023-06-22T13:31:24;11.30;;;9.20;;
20954;SDS011;10636;19.390;-99.256;2023-06-22T13:33:53;11.55;;;9.40;;
20954;SDS011;10636;19.390;-99.256;2023-06-22T13:36:21;12.35;;;9.93;;
20954;SDS011;10636;19.390;-99.256;2023-06-22T13:38:50;11.50;;;9.07;;
20954;SDS011;10636;19.390;-99.256;2023-06-22T13:41:20;10.52;;;9.52;;
20954;SDS011;10636;19.390;-99.256;2023-06-22T13:43:49;10.63;;;9.45;;
20954;SDS011;10636;19.390;-99.256;2023-06-22T13:46:17;11.43;;;9.65;;
20954;SDS011;10636;19.390;-99.256;2023-06-22T13:48:46;11.23;;;9.90;;
20954;SDS011;10636;19.390;-99.256;2023-06-22T13:51:14;11.85;;;9.55;;
20954;SDS011;10636;19.390;-99.256;2023-06-22T13:53:43;11.00;;;9.90;;
20954;SDS011;10636;19.390;-99.256;2023-06-22T13:56:11;11.20;;;10.00;;
20954;SDS011;10636;19.390;-99.256;2023-06-22T13:58:42;11.90;;;9.98;;
20954;SDS011;10636;19.390;-99.256;2023-06-22T14:01:10;11.00;;;10.02;;
20954;SDS011;10636;19.390;-99.256;2023-06-22T14:03:42;11.70;;;10.30;;
20954;SDS011;10636;19.390;-99.256;2023-06-22T14:06:12;11.45;;;9.77;;
20954;SDS011;10636;19.390;-99.256;2023-06-22T14:08:41;11.23;;;10.20;;
20954;SDS011;10636;19.390;-99.256;2023-06-22T14:11:09;11.90;;;10.13;;
20954;SDS011;10636;19.390;-99.256;2023-06-22T14:13:38;11.18;;;10.07;;
20954;SDS011;10636;19.390;-99.256;2023-06-22T14:16:09;11.63;;;10.40;;
20954;SDS011;10636;19.390;-99.256;2023-06-22T14:18:40;11.50;;;10.30;;
20954;SDS011;10636;19.390;-99.256;2023-06-22T14:21:09;12.77;;;10.05;;
20954;SDS011;10636;19.390;-99.256;2023-06-22T14:23:37;12.20;;;10.88;;
20954;SDS011;10636;19.390;-99.256;2023-06-22T14:26:06;11.50;;;10.07;;
20954;SDS011;10636;19.390;-99.256;2023-06-22T14:28:37;13.05;;;10.32;;
20954;SDS011;10636;19.390;-99.256;2023-06-22T14:31:06;11.00;;;9.90;;